Time;durP1;ratioP1;P1;durP2;ratioP2;P2;SDS_P1;SDS_P2;PMS_P1;PMS_P2;Temp;Humidity;BMP_temperature;BMP_pressure;BME280_temperature;BME280_humidity;BME280_pressure;Samples;Min_cycle;Max_cycle;Signal;HPM_P1;HPM_P2
2022/04/24 00:01:58;;;;;;;12.77;11.47;;;;;;;13.80;57.30;98399.03;5027698;28;20969;-70
2022/04/24 00:04:24;;;;;;;12.23;11.03;;;;;;;13.72;57.62;98394.38;5023440;28;20451;-70
2022/04/24 00:06:51;;;;;;;12.65;11.45;;;;;;;13.75;57.44;98400.00;5013524;28;20879;-70
2022/04/24 00:09:16;;;;;;;12.68;11.40;;;;;;;13.75;57.79;98405.44;5011320;28;20404;-71
2022/04/24 00:11:42;;;;;;;12.87;11.47;;;;;;;13.73;57.53;98402.19;5017002;28;20453;-70
2022/04/24 00:14:10;;;;;;;12.63;11.38;;;;;;;13.77;57.54;98411.34;5019654;28;20764;-70
2022/04/24 00:16:36;;;;;;;12.60;10.95;;;;;;;13.79;57.83;98413.78;5017134;28;20389;-70
2022/04/24 00:19:02;;;;;;;12.20;10.90;;;;;;;13.74;57.71;98409.25;5015032;28;20892;-70
2022/04/24 00:21:27;;;;;;;12.60;11.27;;;;;;;13.70;57.53;98412.94;5013269;28;20404;-70
2022/04/24 00:23:52;;;;;;;11.67;10.47;;;;;;;13.67;57.69;98405.38;5021954;28;20414;-71
2022/04/24 00:26:18;;;;;;;11.80;10.60;;;;;;;13.68;57.79;98405.06;5011697;28;20416;-70
2022/04/24 00:28:43;;;;;;;11.83;10.73;;;;;;;13.72;57.87;98402.53;5010365;28;20447;-70
2022/04/24 00:31:08;;;;;;;11.70;10.60;;;;;;;13.71;57.72;98401.72;5029219;28;20400;-70
2022/04/24 00:33:33;;;;;;;11.43;10.37;;;;;;;13.74;57.55;98397.56;5013494;28;20413;-70
2022/04/24 00:35:59;;;;;;;12.10;10.90;;;;;;;13.76;57.28;98396.16;5012035;28;20478;-70
2022/04/24 00:38:24;;;;;;;11.57;10.47;;;;;;;13.77;57.30;98389.56;5006994;28;20420;-70
2022/04/24 00:40:49;;;;;;;12.73;10.77;;;;;;;13.80;57.00;98391.66;5014231;28;20436;-70
2022/04/24 00:43:15;;;;;;;11.33;10.20;;;;;;;13.80;56.88;98397.09;5014782;28;20546;-70
2022/04/24 00:45:40;;;;;;;10.70;9.73;;;;;;;13.74;57.34;98392.94;5008777;28;20483;-70
2022/04/24 00:48:06;;;;;;;11.13;10.13;;;;;;;13.75;57.38;98385.56;5005304;28;20446;-70
2022/04/24 00:50:31;;;;;;;10.73;9.77;;;;;;;13.73;57.42;98385.09;5013345;28;20413;-70
2022/04/24 00:52:57;;;;;;;10.90;9.80;;;;;;;13.72;57.54;98392.44;5020305;28;20383;-70
2022/04/24 00:55:25;;;;;;;10.90;9.90;;;;;;;13.72;57.41;98392.44;5013243;28;20486;-70
2022/04/24 00:57:51;;;;;;;10.88;9.88;;;;;;;13.73;57.55;98391.31;5012559;28;20896;-71
2022/04/24 01:00:16;;;;;;;11.00;10.00;;;;;;;13.74;57.46;98387.47;5027271;28;20394;-69
2022/04/24 01:02:42;;;;;;;12.00;10.97;;;;;;;13.70;57.41;98394.66;5015633;28;20489;-69
2022/04/24 01:05:08;;;;;;;11.27;10.10;;;;;;;13.71;57.21;98396.28;5022244;28;20421;-70
2022/04/24 01:07:34;;;;;;;11.25;10.05;;;;;;;13.71;57.34;98398.19;5012578;28;20860;-69
2022/04/24 01:10:00;;;;;;;11.50;10.17;;;;;;;13.70;57.38;98391.94;5010655;28;20424;-69
2022/04/24 01:12:25;;;;;;;11.75;10.27;;;;;;;13.73;57.49;98395.97;5016619;28;20414;-69
2022/04/24 01:14:50;;;;;;;10.55;9.50;;;;;;;13.73;56.99;98395.97;5024772;28;20389;-69
2022/04/24 01:17:16;;;;;;;10.83;9.83;;;;;;;13.77;57.08;98400.47;5010609;28;20458;-69
2022/04/24 01:19:41;;;;;;;9.93;9.03;;;;;;;13.78;57.04;98396.63;5021183;28;20864;-69
2022/04/24 01:22:07;;;;;;;11.30;10.23;;;;;;;13.81;57.13;98392.47;4998827;28;20428;-69
2022/04/24 01:24:32;;;;;;;11.10;10.00;;;;;;;13.78;57.23;98404.78;5018341;28;20815;-70
2022/04/24 01:26:57;;;;;;;10.67;9.60;;;;;;;13.77;57.14;98396.94;5029230;28;20415;-70
2022/04/24 01:29:23;;;;;;;12.47;10.23;;;;;;;13.77;57.12;98397.75;5017259;28;20401;-69
2022/04/24 01:31:49;;;;;;;10.48;9.48;;;;;;;13.73;57.41;98404.91;5026401;28;20395;-70
2022/04/24 01:34:16;;;;;;;10.75;9.65;;;;;;;13.72;57.58;98402.53;5009317;28;20884;-69
2022/04/24 01:36:42;;;;;;;10.90;9.80;;;;;;;13.74;57.82;98408.44;5007822;28;20422;-70
2022/04/24 01:39:08;;;;;;;10.75;9.75;;;;;;;13.67;57.50;98406.19;5001289;28;20407;-69
2022/04/24 01:41:36;;;;;;;10.27;9.27;;;;;;;13.64;57.70;98414.19;5039987;28;20521;-69
2022/04/24 01:44:02;;;;;;;10.38;9.27;;;;;;;13.60;57.48;98407.78;5009846;28;20395;-70
2022/04/24 01:46:27;;;;;;;10.33;9.43;;;;;;;13.59;57.77;98412.41;5023311;28;20462;-72
2022/04/24 01:48:53;;;;;;;10.82;9.30;;;;;;;13.60;57.67;98421.38;5022589;28;20794;-72
2022/04/24 01:51:18;;;;;;;9.63;8.37;;;;;;;13.67;57.80;98432.59;5011235;28;20835;-72
2022/04/24 01:53:44;;;;;;;11.90;9.70;;;;;;;13.67;57.72;98438.03;5015696;28;20426;-72
2022/04/24 01:56:11;;;;;;;9.65;8.82;;;;;;;13.70;57.96;98437.44;5007094;28;20872;-72
2022/04/24 01:58:37;;;;;;;10.43;9.32;;;;;;;13.71;57.92;98441.75;4998570;28;20766;-72
2022/04/24 02:01:03;;;;;;;10.20;9.20;;;;;;;13.71;57.41;98428.13;5001773;28;20480;-72
2022/04/24 02:03:30;;;;;;;10.05;9.05;;;;;;;13.59;58.02;98438.81;5027945;28;20865;-72
2022/04/24 02:05:56;;;;;;;10.87;9.87;;;;;;;13.53;58.12;98438.16;4992935;28;20412;-72
2022/04/24 02:08:21;;;;;;;9.87;8.97;;;;;;;13.48;57.91;98438.28;5012057;28;20416;-72
2022/04/24 02:10:47;;;;;;;9.53;8.73;;;;;;;13.42;58.26;98443.06;5012851;28;20407;-72
2022/04/24 02:13:12;;;;;;;9.70;8.77;;;;;;;13.37;58.40;98439.69;5013151;28;20902;-73
2022/04/24 02:15:38;;;;;;;9.20;8.40;;;;;;;13.37;58.50;98448.63;5013286;28;20412;-72
2022/04/24 02:18:04;;;;;;;10.50;9.40;;;;;;;13.34;58.69;98451.97;5015790;28;20504;-72
2022/04/24 02:20:29;;;;;;;9.65;8.75;;;;;;;13.35;59.06;98450.88;5007379;28;20424;-72
2022/04/24 02:22:57;;;;;;;10.37;9.40;;;;;;;13.34;58.82;98448.44;5008669;28;20421;-72
2022/04/24 02:25:23;;;;;;;10.32;9.32;;;;;;;13.34;59.13;98445.72;5010768;28;20772;-72
2022/04/24 02:27:48;;;;;;;10.18;9.27;;;;;;;13.33;58.88;98449.56;5010940;28;20404;-72
2022/04/24 02:30:13;;;;;;;9.83;9.00;;;;;;;13.29;58.96;98443.94;5011630;28;20397;-72
2022/04/24 02:32:39;;;;;;;9.67;8.83;;;;;;;13.30;59.08;98444.75;5012294;28;21690;-72
2022/04/24 02:35:05;;;;;;;12.07;9.27;;;;;;;13.27;59.08;98448.88;5010636;28;20414;-72
2022/04/24 02:37:32;;;;;;;10.50;9.32;;;;;;;13.25;59.16;98445.69;5012049;28;20409;-72
2022/04/24 02:39:57;;;;;;;10.68;9.57;;;;;;;13.25;59.13;98451.13;5015075;28;20490;-72
2022/04/24 02:42:22;;;;;;;10.18;9.27;;;;;;;13.27;59.17;98448.09;5014876;28;20444;-72
2022/04/24 02:44:48;;;;;;;10.40;9.40;;;;;;;13.22;59.38;98449.03;5014650;28;20462;-72
2022/04/24 02:47:13;;;;;;;10.00;9.10;;;;;;;13.20;59.51;98447.75;5014871;28;20408;-72
2022/04/24 02:49:38;;;;;;;10.43;9.43;;;;;;;13.15;60.09;98448.66;5014690;28;20872;-70
2022/04/24 02:52:04;;;;;;;10.67;9.67;;;;;;;13.13;60.16;98445.47;5008924;28;20437;-70
2022/04/24 02:54:29;;;;;;;10.53;9.43;;;;;;;13.13;60.73;98441.94;5008554;28;20415;-69
2022/04/24 02:56:54;;;;;;;10.40;9.40;;;;;;;13.10;60.89;98445.28;5004483;28;20791;-70
2022/04/24 02:59:20;;;;;;;10.43;9.33;;;;;;;13.06;61.16;98445.06;5014394;28;20451;-69
2022/04/24 03:01:45;;;;;;;10.10;9.20;;;;;;;13.05;61.29;98439.91;5012656;28;20409;-69
2022/04/24 03:04:11;;;;;;;10.23;9.33;;;;;;;13.08;61.19;98442.81;5009450;28;20499;-70
2022/04/24 03:06:37;;;;;;;10.63;9.65;;;;;;;13.06;61.05;98439.63;5013666;28;20456;-70
2022/04/24 03:09:03;;;;;;;10.60;9.55;;;;;;;13.04;60.95;98441.81;5009362;28;20426;-70
2022/04/24 03:11:28;;;;;;;10.38;9.48;;;;;;;13.07;60.98;98433.06;5011233;28;20733;-70
2022/04/24 03:13:53;;;;;;;11.37;10.27;;;;;;;13.12;61.31;98441.13;5019677;28;20436;-70
2022/04/24 03:16:19;;;;;;;12.05;9.68;;;;;;;13.11;62.08;98435.97;5018729;28;20399;-70
2022/04/24 03:18:44;;;;;;;10.47;9.43;;;;;;;13.13;62.21;98441.94;5014458;28;20419;-69
2022/04/24 03:21:10;;;;;;;11.47;10.30;;;;;;;13.12;62.50;98441.13;5007593;28;20780;-70
2022/04/24 03:23:35;;;;;;;10.93;9.93;;;;;;;13.15;62.45;98434.25;4998871;28;20426;-70
2022/04/24 03:26:00;;;;;;;13.20;10.20;;;;;;;13.15;62.74;98426.91;5013849;28;20405;-70
2022/04/24 03:28:26;;;;;;;10.53;9.63;;;;;;;13.17;62.80;98451.06;5014152;28;20440;-70
2022/04/24 03:30:51;;;;;;;11.13;10.13;;;;;;;13.21;62.48;98449.31;5015065;28;20427;-70
2022/04/24 03:33:16;;;;;;;10.95;9.98;;;;;;;13.24;62.78;98454.94;5010831;28;20787;-70
2022/04/24 03:35:42;;;;;;;13.97;9.80;;;;;;;13.28;62.69;98463.28;5025695;28;20457;-70
2022/04/24 03:38:07;;;;;;;10.50;9.52;;;;;;;13.28;62.49;98466.81;5013735;28;20433;-70
2022/04/24 03:40:33;;;;;;;12.90;11.37;;;;;;;13.10;63.70;98475.19;5013726;28;20417;-70
2022/04/24 03:42:58;;;;;;;13.20;11.38;;;;;;;13.08;63.68;98467.28;5001260;28;20776;-69
2022/04/24 03:45:24;;;;;;;11.20;10.10;;;;;;;13.06;63.85;98461.38;5014057;28;20411;-70
2022/04/24 03:47:51;;;;;;;11.47;10.37;;;;;;;13.01;63.74;98464.19;5016009;28;20493;-70
2022/04/24 03:50:18;;;;;;;11.93;10.87;;;;;;;13.00;63.77;98465.31;5010936;28;20530;-70
2022/04/24 03:52:44;;;;;;;13.82;12.50;;;;;;;13.03;63.84;98470.16;5011877;28;20448;-69
2022/04/24 03:55:09;;;;;;;13.83;12.53;;;;;;;13.02;64.23;98466.63;5001329;28;20440;-70
2022/04/24 03:57:34;;;;;;;14.63;13.07;;;;;;;13.01;64.69;98475.06;5006625;28;20476;-70
2022/04/24 04:00:00;;;;;;;14.48;12.95;;;;;;;13.05;64.46;98475.25;4995774;28;20926;-70
2022/04/24 04:02:25;;;;;;;14.87;13.47;;;;;;;13.08;64.87;98480.06;5008566;28;20412;-69
2022/04/24 04:04:51;;;;;;;15.02;13.52;;;;;;;13.05;64.75;98484.22;5012591;28;20430;-70
2022/04/24 04:07:16;;;;;;;15.00;13.53;;;;;;;12.99;65.28;98480.84;5009710;28;20888;-69
2022/04/24 04:09:41;;;;;;;15.40;13.80;;;;;;;12.90;65.33;98481.88;5011385;28;20489;-69
2022/04/24 04:12:07;;;;;;;16.47;14.73;;;;;;;12.89;65.77;98488.41;5012227;28;20444;-70
2022/04/24 04:14:33;;;;;;;16.95;15.25;;;;;;;12.72;66.47;98489.06;5010509;28;20491;-69
2022/04/24 04:16:58;;;;;;;18.07;14.93;;;;;;;12.74;66.79;98491.50;5012330;28;20396;-69
2022/04/24 04:19:23;;;;;;;17.10;15.37;;;;;;;12.70;67.29;98488.59;5008241;28;20403;-70
2022/04/24 04:21:49;;;;;;;18.00;15.47;;;;;;;12.63;67.80;98500.97;5011636;28;20899;-69
2022/04/24 04:24:14;;;;;;;18.27;16.38;;;;;;;12.62;68.20;98493.91;5005862;28;20743;-69
2022/04/24 04:26:40;;;;;;;17.67;15.87;;;;;;;12.69;68.10;98505.19;5006470;28;20401;-70
2022/04/24 04:29:05;;;;;;;17.35;15.50;;;;;;;12.72;67.87;98499.13;5011422;28;20438;-69
2022/04/24 04:31:30;;;;;;;23.57;17.00;;;;;;;12.75;67.95;98512.91;5005593;28;20408;-70
2022/04/24 04:33:56;;;;;;;18.02;16.20;;;;;;;12.73;68.26;98504.28;5011700;28;20407;-69
2022/04/24 04:36:21;;;;;;;21.23;15.70;;;;;;;12.71;68.61;98506.47;5012697;28;20888;-70
2022/04/24 04:38:46;;;;;;;18.40;16.40;;;;;;;12.54;69.26;98511.78;5013415;28;20907;-70
2022/04/24 04:41:12;;;;;;;19.33;16.50;;;;;;;12.59;69.32;98516.28;5001755;28;20459;-70
2022/04/24 04:43:38;;;;;;;17.57;15.77;;;;;;;12.67;68.93;98521.00;5007641;28;20420;-69
2022/04/24 04:46:03;;;;;;;19.00;17.10;;;;;;;12.67;69.20;98526.44;5011404;28;20914;-70
2022/04/24 04:48:29;;;;;;;17.63;15.43;;;;;;;12.68;68.94;98537.00;5010261;28;20408;-70
2022/04/24 04:50:54;;;;;;;17.77;15.97;;;;;;;12.71;69.39;98532.88;5012394;28;20416;-69
2022/04/24 04:53:20;;;;;;;17.63;15.90;;;;;;;12.51;70.02;98546.91;5012360;28;20420;-70
2022/04/24 04:55:45;;;;;;;18.33;15.70;;;;;;;12.60;70.04;98548.59;4997677;28;20426;-70
2022/04/24 04:58:11;;;;;;;18.40;16.50;;;;;;;12.51;70.40;98560.47;5011015;28;20417;-70
2022/04/24 05:00:36;;;;;;;18.05;16.23;;;;;;;12.48;70.74;98564.59;5010202;28;20413;-70
2022/04/24 05:03:01;;;;;;;20.33;17.13;;;;;;;12.42;71.54;98557.66;4998564;28;20913;-69
2022/04/24 05:05:27;;;;;;;17.50;14.07;;;;;;;12.14;73.22;98554.16;5007226;28;20405;-69
2022/04/24 05:07:52;;;;;;;14.60;13.02;;;;;;;12.07;73.90;98564.59;5010866;28;20416;-70
2022/04/24 05:10:18;;;;;;;15.00;13.67;;;;;;;12.00;74.80;98571.50;5011295;28;20407;-70
2022/04/24 05:12:43;;;;;;;18.07;14.90;;;;;;;12.15;74.23;98568.53;5011933;28;20778;-70
2022/04/24 05:15:13;;;;;;;15.55;13.95;;;;;;;12.15;74.27;98572.03;5005998;28;20465;-70
2022/04/24 05:17:38;;;;;;;13.30;11.90;;;;;;;12.05;74.65;98582.28;5008474;28;20484;-70
2022/04/24 05:20:05;;;;;;;11.25;9.38;;;;;;;12.03;75.08;98581.78;5012053;28;20539;-70
2022/04/24 05:22:30;;;;;;;9.90;9.00;;;;;;;11.96;75.58;98582.16;5011311;28;20490;-70
2022/04/24 05:24:55;;;;;;;8.50;7.80;;;;;;;11.98;75.46;98598.97;5009592;28;20864;-70
2022/04/24 05:27:20;;;;;;;7.90;7.10;;;;;;;12.05;75.08;98601.31;5011111;28;20408;-70
2022/04/24 05:29:46;;;;;;;6.80;6.20;;;;;;;12.14;74.59;98600.31;5001626;28;20420;-69
2022/04/24 05:32:12;;;;;;;7.17;5.63;;;;;;;12.14;74.82;98608.44;5013941;28;20414;-69
2022/04/24 05:34:37;;;;;;;6.05;5.45;;;;;;;12.14;74.69;98611.16;5016903;28;20887;-69
2022/04/24 05:37:04;;;;;;;6.20;5.60;;;;;;;12.15;74.76;98615.47;5012173;28;20872;-69
2022/04/24 05:39:29;;;;;;;5.30;4.90;;;;;;;12.13;74.66;98620.41;5012771;28;20405;-69
2022/04/24 05:41:55;;;;;;;5.22;4.25;;;;;;;12.04;75.49;98635.78;5006104;28;20428;-69
2022/04/24 05:44:20;;;;;;;5.27;3.80;;;;;;;11.93;76.21;98631.63;5003213;28;20408;-68
2022/04/24 05:46:45;;;;;;;7.25;3.78;;;;;;;11.80;77.12;98635.09;5013613;28;20709;-68
2022/04/24 05:49:11;;;;;;;2.90;2.70;;;;;;;11.92;76.90;98638.97;5014504;28;20393;-68
2022/04/24 05:51:36;;;;;;;3.97;3.67;;;;;;;12.02;76.71;98642.63;5023458;28;20387;-68
2022/04/24 05:54:02;;;;;;;3.33;3.13;;;;;;;11.91;76.89;98645.50;5018530;28;20768;-69
2022/04/24 05:56:27;;;;;;;3.60;3.10;;;;;;;11.82;77.31;98641.06;5015367;28;20423;-68
2022/04/24 05:58:53;;;;;;;2.93;2.73;;;;;;;11.84;77.33;98653.22;5016558;28;20481;-69
2022/04/24 06:01:18;;;;;;;2.80;1.93;;;;;;;11.91;76.58;98650.13;5013380;28;20416;-67
2022/04/24 06:03:44;;;;;;;1.97;1.73;;;;;;;11.85;76.90;98656.75;5019669;28;20854;-69
2022/04/24 06:06:09;;;;;;;1.80;1.70;;;;;;;11.66;77.78;98656.72;5011045;28;20895;-66
2022/04/24 06:08:35;;;;;;;1.67;1.50;;;;;;;11.72;77.66;98657.50;5024645;28;20433;-68
2022/04/24 06:11:00;;;;;;;1.90;1.80;;;;;;;11.77;77.42;98660.94;5013331;28;20413;-65
2022/04/24 06:13:26;;;;;;;2.58;2.05;;;;;;;11.79;77.46;98663.34;5007039;28;20812;-65
2022/04/24 06:15:55;;;;;;;2.25;2.15;;;;;;;11.80;77.35;98664.97;5013492;28;20415;-65
2022/04/24 06:18:21;;;;;;;4.47;1.52;;;;;;;11.92;76.93;98666.09;5013328;28;20815;-67
2022/04/24 06:20:46;;;;;;;1.45;1.00;;;;;;;11.93;76.88;98666.91;5023328;28;20552;-67
2022/04/24 06:23:11;;;;;;;1.43;1.10;;;;;;;11.88;77.07;98672.44;5011883;28;20454;-67
2022/04/24 06:25:38;;;;;;;1.57;1.07;;;;;;;11.86;76.82;98675.44;5007117;28;20437;-65
2022/04/24 06:28:04;;;;;;;1.60;1.40;;;;;;;11.84;77.36;98655.94;5017035;28;20491;-65
2022/04/24 06:30:31;;;;;;;1.38;1.00;;;;;;;11.87;77.39;98660.78;5008193;28;20417;-65
2022/04/24 06:32:57;;;;;;;2.53;0.73;;;;;;;11.72;77.77;98658.28;5012261;28;20409;-66
2022/04/24 06:35:23;;;;;;;2.67;0.70;;;;;;;11.59;78.70;98659.00;5006516;28;20500;-65
2022/04/24 06:37:53;;;;;;;1.00;0.85;;;;;;;11.55;79.05;98666.16;5011088;28;20818;-65
2022/04/24 06:40:19;;;;;;;4.97;1.20;;;;;;;11.69;79.02;98669.69;5011796;28;20413;-66
2022/04/24 06:42:58;;;;;;;1.83;1.27;;;;;;;11.86;78.37;98672.72;5007783;28;20478;-65
2022/04/24 06:45:29;;;;;;;1.42;1.00;;;;;;;11.95;77.98;98675.59;5005697;28;20428;-66
2022/04/24 06:47:55;;;;;;;1.95;1.10;;;;;;;11.96;77.91;98679.88;5008471;28;20425;-66
2022/04/24 06:50:22;;;;;;;2.28;0.80;;;;;;;11.96;78.09;98688.03;5014704;28;20756;-66
2022/04/24 06:53:03;;;;;;;1.43;0.70;;;;;;;11.88;78.61;98688.72;4999365;28;20891;-66
2022/04/24 06:55:29;;;;;;;3.30;0.75;;;;;;;11.82;78.65;98687.97;5006421;28;20431;-66
2022/04/24 06:57:55;;;;;;;2.70;1.10;;;;;;;11.78;78.67;98694.31;5005694;28;20413;-66
2022/04/24 07:00:22;;;;;;;1.30;0.77;;;;;;;11.80;78.96;98692.91;5010810;28;20415;-66
2022/04/24 07:02:48;;;;;;;1.42;1.33;;;;;;;11.89;78.20;98682.97;5002177;28;20520;-66
2022/04/24 07:05:14;;;;;;;2.05;0.73;;;;;;;11.91;78.35;98688.13;5003458;28;20487;-66
2022/04/24 07:07:41;;;;;;;4.00;0.93;;;;;;;11.91;78.26;98694.38;5004386;28;20980;-68
2022/04/24 07:10:07;;;;;;;1.80;1.10;;;;;;;11.83;78.49;98696.94;5002258;28;20464;-66
2022/04/24 07:12:43;;;;;;;3.30;1.00;;;;;;;11.83;78.58;98689.59;4999715;28;20416;-66
2022/04/24 07:15:08;;;;;;;2.42;0.90;;;;;;;11.91;78.30;98697.09;5008113;28;20448;-66
2022/04/24 07:17:34;;;;;;;3.50;0.87;;;;;;;12.01;77.80;98693.41;5007120;28;20440;-66
2022/04/24 07:19:59;;;;;;;1.20;0.60;;;;;;;11.96;78.07;98696.19;5023633;28;20405;-67
2022/04/24 07:22:24;;;;;;;0.80;0.50;;;;;;;11.96;78.19;98702.41;5011109;28;20412;-66
2022/04/24 07:24:49;;;;;;;1.77;0.70;;;;;;;12.06;77.87;98695.19;5012896;28;20443;-66
2022/04/24 07:27:15;;;;;;;0.60;0.60;;;;;;;12.06;78.06;98693.28;5015205;28;20776;-66
2022/04/24 07:29:40;;;;;;;1.80;0.60;;;;;;;12.13;77.91;98699.16;5010642;28;20417;-66
2022/04/24 07:32:06;;;;;;;1.47;1.10;;;;;;;12.07;77.96;98694.09;5004034;28;20657;-66
2022/04/24 07:34:31;;;;;;;0.90;0.73;;;;;;;12.11;77.83;98693.22;5010197;28;20776;-66
2022/04/24 07:36:56;;;;;;;0.73;0.60;;;;;;;12.18;78.09;98692.84;5010007;28;20412;-66
2022/04/24 07:39:21;;;;;;;0.67;0.60;;;;;;;12.23;77.88;98695.47;5009504;28;20443;-66
2022/04/24 07:41:47;;;;;;;1.40;0.60;;;;;;;12.26;77.17;98692.94;5011662;28;20436;-66
2022/04/24 07:44:12;;;;;;;1.63;0.80;;;;;;;12.27;77.06;98697.28;5010083;28;20522;-66
2022/04/24 07:46:37;;;;;;;0.50;0.50;;;;;;;12.30;77.05;98698.59;5009159;28;20775;-66
2022/04/24 07:49:02;;;;;;;0.40;0.40;;;;;;;12.30;77.30;98701.31;5004225;28;20416;-66
2022/04/24 07:51:28;;;;;;;0.93;0.63;;;;;;;12.26;77.58;98701.09;5011875;28;20452;-66
2022/04/24 07:53:53;;;;;;;1.37;0.77;;;;;;;12.30;77.45;98707.56;5009718;28;20421;-66
2022/04/24 07:56:18;;;;;;;1.10;0.80;;;;;;;12.30;77.58;98707.56;5006670;28;20413;-66
2022/04/24 07:58:43;;;;;;;1.40;1.30;;;;;;;12.28;77.40;98708.97;5014053;28;20412;-66
2022/04/24 08:01:11;;;;;;;2.63;0.70;;;;;;;12.27;77.49;98705.44;5010463;28;20420;-66
2022/04/24 08:03:36;;;;;;;0.67;0.60;;;;;;;12.37;76.83;98715.31;5011175;28;20431;-66
2022/04/24 08:06:01;;;;;;;2.40;0.70;;;;;;;12.40;76.72;98715.53;5011054;28;20405;-67
2022/04/24 08:08:27;;;;;;;0.50;0.50;;;;;;;12.42;76.77;98713.31;5004326;28;20501;-67
2022/04/24 08:10:55;;;;;;;0.50;0.50;;;;;;;12.40;76.11;98706.56;5010116;28;20501;-66
2022/04/24 08:13:21;;;;;;;1.73;0.60;;;;;;;12.32;76.49;98712.66;4998970;28;20829;-67
2022/04/24 08:15:47;;;;;;;1.30;0.70;;;;;;;12.25;76.51;98718.50;4987142;28;20411;-66
2022/04/24 08:18:13;;;;;;;0.82;0.77;;;;;;;12.24;76.83;98716.91;4989572;28;20473;-67
2022/04/24 08:20:40;;;;;;;1.20;1.10;;;;;;;12.26;76.99;98708.44;4986610;28;20762;-66
2022/04/24 08:23:06;;;;;;;2.50;2.40;;;;;;;12.24;76.97;98716.91;4989023;28;20422;-67
2022/04/24 08:25:34;;;;;;;1.88;1.58;;;;;;;12.17;77.38;98715.66;4986356;28;20476;-67
2022/04/24 08:28:02;;;;;;;1.38;0.43;;;;;;;12.17;76.91;98718.38;5006191;28;20413;-67
2022/04/24 08:30:28;;;;;;;3.50;0.80;;;;;;;12.18;77.07;98720.00;4998826;28;20398;-67
2022/04/24 08:32:53;;;;;;;0.63;0.50;;;;;;;12.14;77.33;98722.50;5015535;28;20407;-67
2022/04/24 08:35:19;;;;;;;0.80;0.43;;;;;;;12.12;77.52;98730.13;5026504;28;20400;-67
2022/04/24 08:37:46;;;;;;;0.70;0.38;;;;;;;11.97;78.15;98724.94;5013075;28;20412;-67
2022/04/24 08:40:14;;;;;;;0.83;0.50;;;;;;;11.88;78.78;98727.53;4999340;28;22299;-66
2022/04/24 08:42:40;;;;;;;0.75;0.50;;;;;;;11.98;78.28;98725.75;5016883;28;20447;-67
2022/04/24 08:45:10;;;;;;;2.35;0.50;;;;;;;12.11;77.71;98731.25;5010258;28;20404;-67
2022/04/24 08:47:35;;;;;;;1.05;0.30;;;;;;;12.11;77.46;98727.72;5008455;28;20454;-66
2022/04/24 08:50:01;;;;;;;1.20;0.80;;;;;;;12.14;77.72;98729.84;5013224;28;20469;-66
2022/04/24 08:52:28;;;;;;;0.70;0.40;;;;;;;12.16;77.87;98741.19;5016810;28;20432;-67
2022/04/24 08:54:55;;;;;;;0.80;0.40;;;;;;;12.14;77.58;98733.38;5009408;28;20415;-67
2022/04/24 08:57:26;;;;;;;0.35;0.35;;;;;;;12.25;77.08;98734.00;5016780;28;20831;-67
2022/04/24 08:59:55;;;;;;;1.38;0.38;;;;;;;12.16;77.41;98747.44;5009330;28;20443;-67
2022/04/24 09:02:21;;;;;;;1.20;0.40;;;;;;;12.18;76.86;98744.44;4983422;28;20433;-67
2022/04/24 09:04:46;;;;;;;0.40;0.30;;;;;;;12.23;76.99;98741.63;4981945;28;20503;-67
2022/04/24 09:07:17;;;;;;;0.50;0.50;;;;;;;12.24;77.21;98745.97;4991594;28;20493;-67
2022/04/24 09:09:45;;;;;;;0.40;0.40;;;;;;;12.15;77.46;98742.31;5004139;28;20451;-67
2022/04/24 09:12:13;;;;;;;1.33;0.40;;;;;;;12.16;77.67;98743.91;4990937;28;20838;-67
2022/04/24 09:14:39;;;;;;;0.55;0.40;;;;;;;12.20;77.72;98751.19;4987384;28;20402;-67
2022/04/24 09:17:22;;;;;;;0.32;0.30;;;;;;;12.26;77.65;98758.13;4991883;28;20418;-67
2022/04/24 09:19:48;;;;;;;2.78;0.40;;;;;;;11.94;78.26;98755.41;4989128;28;20410;-67
2022/04/24 09:22:14;;;;;;;0.30;0.30;;;;;;;11.97;78.63;98752.09;4989219;28;20447;-67
2022/04/24 09:24:49;;;;;;;0.40;0.40;;;;;;;12.09;78.44;98757.88;4997854;28;20428;-67
2022/04/24 09:27:26;;;;;;;0.50;0.40;;;;;;;12.10;78.34;98759.50;4984696;28;20412;-67
2022/04/24 09:30:10;;;;;;;0.30;0.30;;;;;;;12.04;78.81;98751.72;4990764;28;20810;-67
2022/04/24 09:32:47;;;;;;;0.87;0.40;;;;;;;12.16;78.33;98763.72;4991512;28;20403;-66
2022/04/24 09:35:29;;;;;;;0.50;0.40;;;;;;;12.18;78.21;98764.25;4986623;28;20928;-66
2022/04/24 09:38:17;;;;;;;0.70;0.40;;;;;;;12.25;77.66;98756.50;4974835;28;20424;-67
2022/04/24 09:40:49;;;;;;;0.45;0.45;;;;;;;12.14;78.08;98760.50;4973141;28;20429;-67
2022/04/24 09:43:16;;;;;;;0.90;0.30;;;;;;;12.15;77.76;98762.09;4974482;28;20782;-66
2022/04/24 09:45:47;;;;;;;0.67;0.40;;;;;;;12.10;77.71;98761.38;4970417;28;21063;-66
2022/04/24 09:48:20;;;;;;;0.55;0.50;;;;;;;11.98;77.97;98767.28;4967998;28;20593;-66
2022/04/24 09:50:47;;;;;;;1.50;0.40;;;;;;;12.07;78.36;98772.84;4967566;28;20435;-67
2022/04/24 09:53:14;;;;;;;0.50;0.30;;;;;;;11.96;78.48;98770.28;4972521;28;20431;-66
2022/04/24 09:55:43;;;;;;;1.75;0.52;;;;;;;11.99;78.39;98787.88;4971773;28;20468;-66
2022/04/24 09:58:09;;;;;;;0.68;0.68;;;;;;;12.01;78.62;98779.47;4970804;28;20411;-66
2022/04/24 10:00:35;;;;;;;1.53;0.90;;;;;;;12.02;78.35;98781.88;4969702;28;20418;-67
2022/04/24 10:03:04;;;;;;;0.50;0.50;;;;;;;11.93;78.50;98781.72;4973441;28;20976;-66
2022/04/24 10:05:30;;;;;;;0.90;0.52;;;;;;;11.84;78.16;98786.22;4968022;28;20415;-67
2022/04/24 10:07:56;;;;;;;1.00;0.30;;;;;;;11.76;78.56;98791.47;4974307;28;21148;-66
2022/04/24 10:10:22;;;;;;;0.40;0.40;;;;;;;11.84;78.37;98780.78;4979725;28;20489;-66
2022/04/24 10:12:50;;;;;;;0.43;0.43;;;;;;;11.91;77.94;98788.56;4981907;28;20419;-67
2022/04/24 10:15:17;;;;;;;0.60;0.40;;;;;;;11.88;77.75;98792.69;4978460;28;20507;-66
2022/04/24 10:17:54;;;;;;;0.40;0.40;;;;;;;11.82;78.08;98791.13;4979478;28;20414;-66
2022/04/24 10:20:29;;;;;;;1.40;0.38;;;;;;;11.68;78.83;98789.41;4981384;28;20402;-67
2022/04/24 10:22:55;;;;;;;0.65;0.47;;;;;;;11.76;78.84;98786.06;4973382;28;20449;-67
2022/04/24 10:25:32;;;;;;;0.87;0.60;;;;;;;11.80;78.45;98792.50;4969920;28;20434;-66
2022/04/24 10:28:08;;;;;;;1.25;0.70;;;;;;;11.82;78.55;98795.75;4969253;28;21571;-67
2022/04/24 10:30:34;;;;;;;0.55;0.55;;;;;;;11.82;78.89;98798.47;4983828;28;20785;-68
2022/04/24 10:33:13;;;;;;;0.60;0.60;;;;;;;11.85;78.92;98806.03;4993801;28;20417;-69
2022/04/24 10:35:48;;;;;;;0.40;0.40;;;;;;;11.76;79.23;98805.84;4985131;28;20408;-66
2022/04/24 10:38:13;;;;;;;0.70;0.70;;;;;;;11.69;79.48;98802.66;4985302;28;20402;-66
2022/04/24 10:40:39;;;;;;;0.60;0.50;;;;;;;11.85;79.05;98806.03;4990568;28;20777;-66
2022/04/24 10:43:07;;;;;;;0.60;0.60;;;;;;;12.04;78.30;98814.16;4989677;28;20430;-66
2022/04/24 10:45:44;;;;;;;0.60;0.50;;;;;;;11.95;78.43;98814.81;4989036;28;20401;-67
2022/04/24 10:48:14;;;;;;;1.05;0.70;;;;;;;11.83;78.57;98817.16;4986373;28;20414;-66
2022/04/24 10:50:49;;;;;;;1.55;0.30;;;;;;;11.69;79.00;98818.16;4994519;28;20399;-66
2022/04/24 10:53:15;;;;;;;0.30;0.30;;;;;;;11.70;79.21;98828.75;4992704;28;20410;-66
2022/04/24 10:55:42;;;;;;;1.90;0.40;;;;;;;11.65;78.96;98828.78;4990249;28;20932;-66
2022/04/24 10:58:09;;;;;;;0.60;0.60;;;;;;;11.70;79.20;98819.75;4991417;28;20761;-66
2022/04/24 11:00:36;;;;;;;1.87;0.33;;;;;;;11.82;78.56;98822.91;4984182;28;20506;-67
2022/04/24 11:03:07;;;;;;;1.00;0.90;;;;;;;12.01;77.90;98831.03;4981953;28;20420;-67
2022/04/24 11:05:37;;;;;;;0.60;0.40;;;;;;;11.97;78.27;98828.09;4981920;28;20406;-66
2022/04/24 11:08:05;;;;;;;1.08;0.50;;;;;;;11.90;78.53;98830.38;4982897;28;20449;-66
2022/04/24 11:10:37;;;;;;;1.95;0.57;;;;;;;11.95;78.54;98831.09;4984057;28;20841;-66
2022/04/24 11:13:03;;;;;;;0.60;0.60;;;;;;;12.05;78.50;98832.06;4984164;28;20430;-66
2022/04/24 11:15:28;;;;;;;1.00;0.60;;;;;;;12.14;78.19;98830.31;4982253;28;20429;-66
2022/04/24 11:17:54;;;;;;;0.30;0.30;;;;;;;12.16;78.18;98841.66;4981259;28;20417;-66
2022/04/24 11:20:19;;;;;;;0.80;0.40;;;;;;;12.23;77.56;98840.22;4983407;28;20505;-66
2022/04/24 11:22:49;;;;;;;0.40;0.40;;;;;;;12.27;76.93;98848.56;4985622;28;20854;-66
2022/04/24 11:25:16;;;;;;;0.60;0.40;;;;;;;12.20;77.34;98846.22;4981147;28;20453;-66